sensor_id;sensor_type;location;lat;lon;timestamp;temperature;humidity
9403;DHT22;4741;49.834;10.740;2022-11-20T00:00:14;-0.80;99.90
9403;DHT22;4741;49.834;10.740;2022-11-20T00:02:41;-0.70;99.90
9403;DHT22;4741;49.834;10.740;2022-11-20T00:05:07;-0.70;99.90
9403;DHT22;4741;49.834;10.740;2022-11-20T00:07:34;-0.50;99.90
9403;DHT22;4741;49.834;10.740;2022-11-20T00:10:01;-0.50;99.90
9403;DHT22;4741;49.834;10.740;2022-11-20T00:12:28;-0.60;99.90
9403;DHT22;4741;49.834;10.740;2022-11-20T00:14:54;-0.60;99.90
9403;DHT22;4741;49.834;10.740;2022-11-20T00:17:21;-0.50;99.90
9403;DHT22;4741;49.834;10.740;2022-11-20T00:19:48;-0.40;99.90
9403;DHT22;4741;49.834;10.740;2022-11-20T00:22:14;-0.50;99.90
9403;DHT22;4741;49.834;10.740;2022-11-20T00:24:42;-0.50;99.90
9403;DHT22;4741;49.834;10.740;2022-11-20T00:27:14;-0.30;99.90
9403;DHT22;4741;49.834;10.740;2022-11-20T00:29:51;-0.30;99.90
9403;DHT22;4741;49.834;10.740;2022-11-20T00:32:20;-0.30;99.90
9403;DHT22;4741;49.834;10.740;2022-11-20T00:34:46;-0.30;99.90
9403;DHT22;4741;49.834;10.740;2022-11-20T00:37:13;-0.30;99.90
9403;DHT22;4741;49.834;10.740;2022-11-20T00:39:43;-0.30;99.90
9403;DHT22;4741;49.834;10.740;2022-11-20T00:42:14;-0.30;99.90
9403;DHT22;4741;49.834;10.740;2022-11-20T00:44:41;-0.40;99.90
9403;DHT22;4741;49.834;10.740;2022-11-20T00:47:12;-0.40;99.90
9403;DHT22;4741;49.834;10.740;2022-11-20T00:49:41;-0.40;99.90
9403;DHT22;4741;49.834;10.740;2022-11-20T00:52:09;-0.40;99.90
9403;DHT22;4741;49.834;10.740;2022-11-20T00:54:36;-0.40;99.90
9403;DHT22;4741;49.834;10.740;2022-11-20T00:57:16;-0.30;99.90
9403;DHT22;4741;49.834;10.740;2022-11-20T00:59:44;-0.30;99.90
9403;DHT22;4741;49.834;10.740;2022-11-20T01:02:11;-0.30;99.90
9403;DHT22;4741;49.834;10.740;2022-11-20T01:04:39;-0.20;99.90
9403;DHT22;4741;49.834;10.740;2022-11-20T01:07:12;-0.30;99.90
9403;DHT22;4741;49.834;10.740;2022-11-20T01:09:38;-0.50;99.90
9403;DHT22;4741;49.834;10.740;2022-11-20T01:12:05;-0.50;99.90
9403;DHT22;4741;49.834;10.740;2022-11-20T01:14:32;-0.20;99.90
9403;DHT22;4741;49.834;10.740;2022-11-20T01:16:58;-0.30;99.90
9403;DHT22;4741;49.834;10.740;2022-11-20T01:19:25;-0.40;99.90
9403;DHT22;4741;49.834;10.740;2022-11-20T01:21:53;-0.30;99.90
9403;DHT22;4741;49.834;10.740;2022-11-20T01:24:20;-0.30;99.90
9403;DHT22;4741;49.834;10.740;2022-11-20T01:26:48;-0.40;99.90
9403;DHT22;4741;49.834;10.740;2022-11-20T01:29:19;-0.40;99.90
9403;DHT22;4741;49.834;10.740;2022-11-20T01:31:46;-0.50;99.90
9403;DHT22;4741;49.834;10.740;2022-11-20T01:34:14;-0.50;99.90
9403;DHT22;4741;49.834;10.740;2022-11-20T01:36:41;-0.40;99.90
9403;DHT22;4741;49.834;10.740;2022-11-20T01:39:14;-0.60;99.90
9403;DHT22;4741;49.834;10.740;2022-11-20T01:41:42;-0.40;99.90
9403;DHT22;4741;49.834;10.740;2022-11-20T01:44:52;-0.40;99.90
9403;DHT22;4741;49.834;10.740;2022-11-20T01:49:59;-0.30;99.90
9403;DHT22;4741;49.834;10.740;2022-11-20T01:52:29;-0.40;99.90
9403;DHT22;4741;49.834;10.740;2022-11-20T01:55:02;-0.40;99.90
9403;DHT22;4741;49.834;10.740;2022-11-20T01:57:30;-0.40;99.90
9403;DHT22;4741;49.834;10.740;2022-11-20T01:59:59;-0.50;99.90
9403;DHT22;4741;49.834;10.740;2022-11-20T02:02:27;-0.50;99.90
9403;DHT22;4741;49.834;10.740;2022-11-20T02:04:54;-0.60;99.90
9403;DHT22;4741;49.834;10.740;2022-11-20T02:07:23;-0.40;99.90
9403;DHT22;4741;49.834;10.740;2022-11-20T02:09:50;-0.50;99.90
9403;DHT22;4741;49.834;10.740;2022-11-20T02:12:24;-0.50;99.90
9403;DHT22;4741;49.834;10.740;2022-11-20T02:15:09;-0.50;99.90
9403;DHT22;4741;49.834;10.740;2022-11-20T02:17:36;-0.50;99.90
9403;DHT22;4741;49.834;10.740;2022-11-20T02:20:02;-0.70;99.90
9403;DHT22;4741;49.834;10.740;2022-11-20T02:22:38;-0.30;99.90
9403;DHT22;4741;49.834;10.740;2022-11-20T02:25:06;-0.30;99.90
9403;DHT22;4741;49.834;10.740;2022-11-20T02:27:34;-0.30;99.90
9403;DHT22;4741;49.834;10.740;2022-11-20T02:30:01;-0.30;99.90
9403;DHT22;4741;49.834;10.740;2022-11-20T02:32:32;-0.40;99.90
9403;DHT22;4741;49.834;10.740;2022-11-20T02:35:09;-0.40;99.90
9403;DHT22;4741;49.834;10.740;2022-11-20T02:37:37;-0.20;99.90
9403;DHT22;4741;49.834;10.740;2022-11-20T02:40:05;-0.30;99.90
9403;DHT22;4741;49.834;10.740;2022-11-20T02:42:32;-0.20;99.90
9403;DHT22;4741;49.834;10.740;2022-11-20T02:44:58;-0.40;99.90
9403;DHT22;4741;49.834;10.740;2022-11-20T02:47:25;-0.30;99.90
9403;DHT22;4741;49.834;10.740;2022-11-20T02:49:52;-0.30;99.90
9403;DHT22;4741;49.834;10.740;2022-11-20T02:52:18;-0.30;99.90
9403;DHT22;4741;49.834;10.740;2022-11-20T02:54:45;-0.20;99.90
9403;DHT22;4741;49.834;10.740;2022-11-20T02:57:12;-0.30;99.90
9403;DHT22;4741;49.834;10.740;2022-11-20T02:59:38;-0.70;99.90
9403;DHT22;4741;49.834;10.740;2022-11-20T03:02:05;-0.60;99.90
9403;DHT22;4741;49.834;10.740;2022-11-20T03:04:32;-0.40;99.90
9403;DHT22;4741;49.834;10.740;2022-11-20T03:06:59;0.80;99.90
9403;DHT22;4741;49.834;10.740;2022-11-20T03:09:25;-0.40;99.90
9403;DHT22;4741;49.834;10.740;2022-11-20T03:11:52;-0.40;99.90
9403;DHT22;4741;49.834;10.740;2022-11-20T03:14:19;-0.40;99.90
9403;DHT22;4741;49.834;10.740;2022-11-20T03:16:45;-0.50;99.90
9403;DHT22;4741;49.834;10.740;2022-11-20T03:19:12;-0.40;99.90
9403;DHT22;4741;49.834;10.740;2022-11-20T03:21:39;-0.50;99.90
9403;DHT22;4741;49.834;10.740;2022-11-20T03:24:06;-0.60;99.90
9403;DHT22;4741;49.834;10.740;2022-11-20T03:26:32;-0.50;99.90
9403;DHT22;4741;49.834;10.740;2022-11-20T03:29:00;-0.70;99.90
9403;DHT22;4741;49.834;10.740;2022-11-20T03:34:49;-0.50;99.90
9403;DHT22;4741;49.834;10.740;2022-11-20T03:37:16;-0.50;99.90
9403;DHT22;4741;49.834;10.740;2022-11-20T03:39:42;-0.70;99.90
9403;DHT22;4741;49.834;10.740;2022-11-20T03:42:09;-0.80;99.90
9403;DHT22;4741;49.834;10.740;2022-11-20T03:45:06;-0.80;99.90
9403;DHT22;4741;49.834;10.740;2022-11-20T03:47:35;-0.60;99.90
9403;DHT22;4741;49.834;10.740;2022-11-20T03:50:08;-0.60;99.90
9403;DHT22;4741;49.834;10.740;2022-11-20T03:52:36;-0.30;99.90
9403;DHT22;4741;49.834;10.740;2022-11-20T03:55:08;-0.60;99.90
9403;DHT22;4741;49.834;10.740;2022-11-20T03:57:35;-0.60;99.90
9403;DHT22;4741;49.834;10.740;2022-11-20T04:00:02;-0.60;99.90
9403;DHT22;4741;49.834;10.740;2022-11-20T04:02:35;-0.40;99.90
9403;DHT22;4741;49.834;10.740;2022-11-20T04:05:02;-0.50;99.90
9403;DHT22;4741;49.834;10.740;2022-11-20T04:07:29;-0.60;99.90
9403;DHT22;4741;49.834;10.740;2022-11-20T04:09:55;-0.60;99.90
9403;DHT22;4741;49.834;10.740;2022-11-20T04:12:22;-0.90;99.90
9403;DHT22;4741;49.834;10.740;2022-11-20T04:14:48;-0.80;99.90
9403;DHT22;4741;49.834;10.740;2022-11-20T04:17:15;-0.70;99.90
9403;DHT22;4741;49.834;10.740;2022-11-20T04:19:42;-0.70;99.90
9403;DHT22;4741;49.834;10.740;2022-11-20T04:22:08;-0.90;99.90
9403;DHT22;4741;49.834;10.740;2022-11-20T04:24:35;-1.10;99.90
9403;DHT22;4741;49.834;10.740;2022-11-20T04:27:02;-0.60;99.90
9403;DHT22;4741;49.834;10.740;2022-11-20T04:29:28;-0.60;99.90
9403;DHT22;4741;49.834;10.740;2022-11-20T04:31:55;-0.80;99.90
9403;DHT22;4741;49.834;10.740;2022-11-20T04:34:21;-0.80;99.90
9403;DHT22;4741;49.834;10.740;2022-11-20T04:36:48;-0.90;99.90
9403;DHT22;4741;49.834;10.740;2022-11-20T04:39:15;-0.80;99.90
9403;DHT22;4741;49.834;10.740;2022-11-20T04:41:42;-0.20;99.90
9403;DHT22;4741;49.834;10.740;2022-11-20T04:44:09;-0.70;99.90
9403;DHT22;4741;49.834;10.740;2022-11-20T04:46:37;-0.80;99.90
9403;DHT22;4741;49.834;10.740;2022-11-20T04:49:04;-0.80;99.90
9403;DHT22;4741;49.834;10.740;2022-11-20T04:51:31;-0.80;99.90
9403;DHT22;4741;49.834;10.740;2022-11-20T04:53:58;-0.80;99.90
9403;DHT22;4741;49.834;10.740;2022-11-20T04:56:25;-1.00;99.90
9403;DHT22;4741;49.834;10.740;2022-11-20T04:58:51;-0.60;99.90
9403;DHT22;4741;49.834;10.740;2022-11-20T05:01:19;-0.50;99.90
9403;DHT22;4741;49.834;10.740;2022-11-20T05:03:46;-0.60;99.90
9403;DHT22;4741;49.834;10.740;2022-11-20T05:06:14;-0.70;99.90
9403;DHT22;4741;49.834;10.740;2022-11-20T05:08:41;-0.60;99.90
9403;DHT22;4741;49.834;10.740;2022-11-20T05:11:09;-0.60;99.90
9403;DHT22;4741;49.834;10.740;2022-11-20T05:13:36;-0.50;99.90
9403;DHT22;4741;49.834;10.740;2022-11-20T05:16:03;-0.60;99.90
9403;DHT22;4741;49.834;10.740;2022-11-20T05:18:30;-0.50;99.90
9403;DHT22;4741;49.834;10.740;2022-11-20T05:20:57;-1.00;99.90
9403;DHT22;4741;49.834;10.740;2022-11-20T05:23:24;-0.80;99.90
9403;DHT22;4741;49.834;10.740;2022-11-20T05:25:53;-1.00;99.90
9403;DHT22;4741;49.834;10.740;2022-11-20T05:28:25;-0.80;99.90
9403;DHT22;4741;49.834;10.740;2022-11-20T05:30:52;-0.80;99.90
9403;DHT22;4741;49.834;10.740;2022-11-20T05:33:19;-0.50;99.90
9403;DHT22;4741;49.834;10.740;2022-11-20T05:35:45;-0.50;99.90
9403;DHT22;4741;49.834;10.740;2022-11-20T05:38:12;-0.70;99.90
9403;DHT22;4741;49.834;10.740;2022-11-20T05:40:39;-0.80;99.90
9403;DHT22;4741;49.834;10.740;2022-11-20T05:43:05;-0.80;99.90
9403;DHT22;4741;49.834;10.740;2022-11-20T05:45:32;-0.60;99.90
9403;DHT22;4741;49.834;10.740;2022-11-20T05:47:59;-0.60;99.90
9403;DHT22;4741;49.834;10.740;2022-11-20T05:50:29;-0.60;99.90
9403;DHT22;4741;49.834;10.740;2022-11-20T05:52:58;-0.50;99.90
9403;DHT22;4741;49.834;10.740;2022-11-20T05:55:24;-0.80;99.90
9403;DHT22;4741;49.834;10.740;2022-11-20T05:57:52;-0.50;99.90
9403;DHT22;4741;49.834;10.740;2022-11-20T06:00:19;-0.50;99.90
9403;DHT22;4741;49.834;10.740;2022-11-20T06:02:46;-0.50;99.90
9403;DHT22;4741;49.834;10.740;2022-11-20T06:05:12;-0.60;99.90
9403;DHT22;4741;49.834;10.740;2022-11-20T06:07:39;-0.50;99.90
9403;DHT22;4741;49.834;10.740;2022-11-20T06:10:06;-0.90;99.90
9403;DHT22;4741;49.834;10.740;2022-11-20T06:12:32;-0.60;99.90
9403;DHT22;4741;49.834;10.740;2022-11-20T06:14:59;-0.60;99.90
9403;DHT22;4741;49.834;10.740;2022-11-20T06:17:26;-0.60;99.90
9403;DHT22;4741;49.834;10.740;2022-11-20T06:19:53;-0.70;99.90
9403;DHT22;4741;49.834;10.740;2022-11-20T06:22:19;-1.10;99.90
9403;DHT22;4741;49.834;10.740;2022-11-20T06:24:46;-0.90;99.90
9403;DHT22;4741;49.834;10.740;2022-11-20T06:27:13;-1.00;99.90
9403;DHT22;4741;49.834;10.740;2022-11-20T06:29:39;-0.90;99.90
9403;DHT22;4741;49.834;10.740;2022-11-20T06:32:06;-0.80;99.90
9403;DHT22;4741;49.834;10.740;2022-11-20T06:34:32;-0.50;99.90
9403;DHT22;4741;49.834;10.740;2022-11-20T06:36:59;-0.90;99.90
9403;DHT22;4741;49.834;10.740;2022-11-20T06:39:26;-0.80;99.90
9403;DHT22;4741;49.834;10.740;2022-11-20T06:41:52;-0.50;99.90
9403;DHT22;4741;49.834;10.740;2022-11-20T06:44:24;-0.50;99.90
9403;DHT22;4741;49.834;10.740;2022-11-20T06:46:51;-0.60;99.90
9403;DHT22;4741;49.834;10.740;2022-11-20T06:49:17;-0.70;99.90
9403;DHT22;4741;49.834;10.740;2022-11-20T06:51:44;-0.60;99.90
9403;DHT22;4741;49.834;10.740;2022-11-20T06:54:11;-0.50;99.90
9403;DHT22;4741;49.834;10.740;2022-11-20T06:56:37;-0.40;99.90
9403;DHT22;4741;49.834;10.740;2022-11-20T06:59:05;-0.60;99.90
9403;DHT22;4741;49.834;10.740;2022-11-20T07:01:32;-0.70;99.90
9403;DHT22;4741;49.834;10.740;2022-11-20T07:03:59;-0.70;99.90
9403;DHT22;4741;49.834;10.740;2022-11-20T07:06:25;-0.50;99.90
9403;DHT22;4741;49.834;10.740;2022-11-20T07:08:52;-0.40;99.90
9403;DHT22;4741;49.834;10.740;2022-11-20T07:11:19;-0.30;99.90
9403;DHT22;4741;49.834;10.740;2022-11-20T07:13:45;-0.30;99.90
9403;DHT22;4741;49.834;10.740;2022-11-20T07:16:12;-0.20;99.90
9403;DHT22;4741;49.834;10.740;2022-11-20T07:18:39;-0.20;99.90
9403;DHT22;4741;49.834;10.740;2022-11-20T07:21:06;-0.20;99.90
9403;DHT22;4741;49.834;10.740;2022-11-20T07:23:33;-0.40;99.90
9403;DHT22;4741;49.834;10.740;2022-11-20T07:26:04;-0.20;99.90
9403;DHT22;4741;49.834;10.740;2022-11-20T07:28:31;-0.20;99.90
9403;DHT22;4741;49.834;10.740;2022-11-20T07:30:57;-0.40;99.90
9403;DHT22;4741;49.834;10.740;2022-11-20T07:33:24;-0.30;99.90
9403;DHT22;4741;49.834;10.740;2022-11-20T07:35:51;-0.20;99.90
9403;DHT22;4741;49.834;10.740;2022-11-20T07:38:17;-0.20;99.90
9403;DHT22;4741;49.834;10.740;2022-11-20T07:40:44;-0.40;99.90
9403;DHT22;4741;49.834;10.740;2022-11-20T07:43:10;-0.40;99.90
9403;DHT22;4741;49.834;10.740;2022-11-20T07:45:37;-0.10;99.90
9403;DHT22;4741;49.834;10.740;2022-11-20T07:48:04;-0.20;99.90
9403;DHT22;4741;49.834;10.740;2022-11-20T07:50:31;0.10;99.90
9403;DHT22;4741;49.834;10.740;2022-11-20T07:53:01;0.00;99.90
9403;DHT22;4741;49.834;10.740;2022-11-20T07:55:28;0.20;99.90
9403;DHT22;4741;49.834;10.740;2022-11-20T07:57:55;0.20;99.90
9403;DHT22;4741;49.834;10.740;2022-11-20T08:00:23;0.20;99.90
9403;DHT22;4741;49.834;10.740;2022-11-20T08:02:49;0.30;99.90
9403;DHT22;4741;49.834;10.740;2022-11-20T08:05:16;0.30;99.90
9403;DHT22;4741;49.834;10.740;2022-11-20T08:07:43;0.40;99.90
9403;DHT22;4741;49.834;10.740;2022-11-20T08:10:11;0.30;99.90
9403;DHT22;4741;49.834;10.740;2022-11-20T08:15:24;0.40;99.90
9403;DHT22;4741;49.834;10.740;2022-11-20T08:17:51;0.30;99.90
9403;DHT22;4741;49.834;10.740;2022-11-20T08:20:39;0.50;99.90
9403;DHT22;4741;49.834;10.740;2022-11-20T08:23:06;0.50;99.90
9403;DHT22;4741;49.834;10.740;2022-11-20T08:25:34;0.60;99.90
9403;DHT22;4741;49.834;10.740;2022-11-20T08:28:02;0.40;99.90
9403;DHT22;4741;49.834;10.740;2022-11-20T08:30:37;0.70;99.90
9403;DHT22;4741;49.834;10.740;2022-11-20T08:33:08;0.50;99.90
9403;DHT22;4741;49.834;10.740;2022-11-20T08:35:35;0.60;99.90
9403;DHT22;4741;49.834;10.740;2022-11-20T08:38:03;0.40;99.90
9403;DHT22;4741;49.834;10.740;2022-11-20T08:40:30;0.20;99.90
9403;DHT22;4741;49.834;10.740;2022-11-20T08:42:57;0.20;99.90
9403;DHT22;4741;49.834;10.740;2022-11-20T08:45:23;0.40;99.90
9403;DHT22;4741;49.834;10.740;2022-11-20T08:47:59;0.30;99.90
9403;DHT22;4741;49.834;10.740;2022-11-20T08:50:26;0.40;99.90
9403;DHT22;4741;49.834;10.740;2022-11-20T08:52:52;0.10;99.90
9403;DHT22;4741;49.834;10.740;2022-11-20T08:55:19;0.40;99.90
9403;DHT22;4741;49.834;10.740;2022-11-20T08:57:45;0.40;99.90
9403;DHT22;4741;49.834;10.740;2022-11-20T09:00:16;0.60;99.90
9403;DHT22;4741;49.834;10.740;2022-11-20T09:02:43;0.50;99.90
9403;DHT22;4741;49.834;10.740;2022-11-20T09:05:09;0.50;99.90
9403;DHT22;4741;49.834;10.740;2022-11-20T09:07:36;0.40;99.90
9403;DHT22;4741;49.834;10.740;2022-11-20T09:10:03;0.50;99.90
9403;DHT22;4741;49.834;10.740;2022-11-20T09:12:50;0.70;99.90
9403;DHT22;4741;49.834;10.740;2022-11-20T09:15:18;0.50;99.90
9403;DHT22;4741;49.834;10.740;2022-11-20T09:17:51;-0.50;99.90
9403;DHT22;4741;49.834;10.740;2022-11-20T09:20:18;0.90;99.90
9403;DHT22;4741;49.834;10.740;2022-11-20T09:22:45;0.20;99.90
9403;DHT22;4741;49.834;10.740;2022-11-20T09:25:12;0.50;99.90
9403;DHT22;4741;49.834;10.740;2022-11-20T09:27:38;0.50;99.90
9403;DHT22;4741;49.834;10.740;2022-11-20T09:30:07;0.60;99.90
9403;DHT22;4741;49.834;10.740;2022-11-20T09:32:33;0.60;99.90
9403;DHT22;4741;49.834;10.740;2022-11-20T09:35:00;0.60;99.90
9403;DHT22;4741;49.834;10.740;2022-11-20T09:37:26;0.70;99.90
9403;DHT22;4741;49.834;10.740;2022-11-20T09:39:53;1.00;99.90
9403;DHT22;4741;49.834;10.740;2022-11-20T09:42:31;0.80;99.90
9403;DHT22;4741;49.834;10.740;2022-11-20T09:55:25;1.10;99.90
9403;DHT22;4741;49.834;10.740;2022-11-20T09:57:51;1.20;99.90
9403;DHT22;4741;49.834;10.740;2022-11-20T10:00:19;1.60;99.90
9403;DHT22;4741;49.834;10.740;2022-11-20T10:03:16;1.60;99.90
9403;DHT22;4741;49.834;10.740;2022-11-20T10:05:42;1.70;99.90
9403;DHT22;4741;49.834;10.740;2022-11-20T10:10:45;1.50;99.90
9403;DHT22;4741;49.834;10.740;2022-11-20T10:21:07;1.70;99.90
9403;DHT22;4741;49.834;10.740;2022-11-20T10:26:16;1.40;99.90
9403;DHT22;4741;49.834;10.740;2022-11-20T10:29:34;1.60;99.90
9403;DHT22;4741;49.834;10.740;2022-11-20T10:32:07;1.50;99.90
9403;DHT22;4741;49.834;10.740;2022-11-20T10:34:46;1.60;99.90
9403;DHT22;4741;49.834;10.740;2022-11-20T10:37:19;1.60;99.90
9403;DHT22;4741;49.834;10.740;2022-11-20T10:42:59;1.90;99.90
9403;DHT22;4741;49.834;10.740;2022-11-20T10:45:48;1.90;99.90
9403;DHT22;4741;49.834;10.740;2022-11-20T10:48:25;1.90;99.90
9403;DHT22;4741;49.834;10.740;2022-11-20T10:56:42;1.50;99.90
9403;DHT22;4741;49.834;10.740;2022-11-20T11:02:41;1.60;99.90
9403;DHT22;4741;49.834;10.740;2022-11-20T11:06:14;1.90;99.90
9403;DHT22;4741;49.834;10.740;2022-11-20T11:12:24;2.30;99.90
9403;DHT22;4741;49.834;10.740;2022-11-20T11:14:53;2.40;99.90
9403;DHT22;4741;49.834;10.740;2022-11-20T11:17:29;3.70;99.90
9403;DHT22;4741;49.834;10.740;2022-11-20T11:20:24;4.30;99.90
9403;DHT22;4741;49.834;10.740;2022-11-20T11:22:59;5.10;99.90
9403;DHT22;4741;49.834;10.740;2022-11-20T11:29:15;4.60;99.90
9403;DHT22;4741;49.834;10.740;2022-11-20T11:31:48;3.80;99.90
9403;DHT22;4741;49.834;10.740;2022-11-20T11:34:16;3.80;99.90
9403;DHT22;4741;49.834;10.740;2022-11-20T11:36:49;3.60;99.90
9403;DHT22;4741;49.834;10.740;2022-11-20T11:39:18;3.30;99.90
9403;DHT22;4741;49.834;10.740;2022-11-20T11:41:47;3.70;99.90
9403;DHT22;4741;49.834;10.740;2022-11-20T11:44:17;3.40;99.90
9403;DHT22;4741;49.834;10.740;2022-11-20T11:47:04;3.40;99.90
9403;DHT22;4741;49.834;10.740;2022-11-20T11:49:32;3.30;99.90
9403;DHT22;4741;49.834;10.740;2022-11-20T11:54:27;3.20;99.90
9403;DHT22;4741;49.834;10.740;2022-11-20T11:56:57;3.30;99.90
9403;DHT22;4741;49.834;10.740;2022-11-20T11:59:27;3.30;99.90
9403;DHT22;4741;49.834;10.740;2022-11-20T12:01:57;3.50;99.90
9403;DHT22;4741;49.834;10.740;2022-11-20T12:04:46;3.70;99.90
9403;DHT22;4741;49.834;10.740;2022-11-20T12:07:29;3.70;99.90
9403;DHT22;4741;49.834;10.740;2022-11-20T12:10:17;3.60;99.90
9403;DHT22;4741;49.834;10.740;2022-11-20T12:12:46;3.60;99.90
9403;DHT22;4741;49.834;10.740;2022-11-20T12:15:16;3.50;99.90
9403;DHT22;4741;49.834;10.740;2022-11-20T12:17:46;3.40;99.90
9403;DHT22;4741;49.834;10.740;2022-11-20T12:20:13;3.40;99.90
9403;DHT22;4741;49.834;10.740;2022-11-20T12:22:46;3.40;99.90
9403;DHT22;4741;49.834;10.740;2022-11-20T12:25:33;3.10;99.90
9403;DHT22;4741;49.834;10.740;2022-11-20T12:28:56;3.10;99.90
9403;DHT22;4741;49.834;10.740;2022-11-20T12:34:19;2.90;99.90
9403;DHT22;4741;49.834;10.740;2022-11-20T12:36:53;2.90;99.90
9403;DHT22;4741;49.834;10.740;2022-11-20T12:39:35;3.00;99.90
9403;DHT22;4741;49.834;10.740;2022-11-20T12:42:09;3.10;99.90
9403;DHT22;4741;49.834;10.740;2022-11-20T12:53:58;2.90;99.90
9403;DHT22;4741;49.834;10.740;2022-11-20T13:01:56;2.90;99.90
9403;DHT22;4741;49.834;10.740;2022-11-20T13:07:20;3.00;99.90
9403;DHT22;4741;49.834;10.740;2022-11-20T13:09:48;2.80;99.90
9403;DHT22;4741;49.834;10.740;2022-11-20T13:12:33;2.70;99.90
9403;DHT22;4741;49.834;10.740;2022-11-20T13:15:04;2.60;99.90
9403;DHT22;4741;49.834;10.740;2022-11-20T13:20:23;2.70;99.90
9403;DHT22;4741;49.834;10.740;2022-11-20T13:22:51;2.70;99.90
9403;DHT22;4741;49.834;10.740;2022-11-20T13:27:50;2.80;99.90
9403;DHT22;4741;49.834;10.740;2022-11-20T13:30:18;2.70;99.90
9403;DHT22;4741;49.834;10.740;2022-11-20T13:33:05;2.80;99.90
9403;DHT22;4741;49.834;10.740;2022-11-20T13:35:36;2.70;99.90
9403;DHT22;4741;49.834;10.740;2022-11-20T13:38:05;2.70;99.90
9403;DHT22;4741;49.834;10.740;2022-11-20T13:40:33;2.70;99.90
9403;DHT22;4741;49.834;10.740;2022-11-20T13:46:02;2.70;99.90
9403;DHT22;4741;49.834;10.740;2022-11-20T13:48:30;2.70;99.90
9403;DHT22;4741;49.834;10.740;2022-11-20T13:51:04;2.80;99.90
9403;DHT22;4741;49.834;10.740;2022-11-20T13:53:37;2.80;99.90
9403;DHT22;4741;49.834;10.740;2022-11-20T13:56:24;2.70;99.90
9403;DHT22;4741;49.834;10.740;2022-11-20T14:01:40;2.80;99.90
9403;DHT22;4741;49.834;10.740;2022-11-20T14:04:08;2.80;99.90
9403;DHT22;4741;49.834;10.740;2022-11-20T14:06:43;2.90;99.90
9403;DHT22;4741;49.834;10.740;2022-11-20T14:09:24;2.90;99.90
9403;DHT22;4741;49.834;10.740;2022-11-20T14:11:52;2.90;99.90
9403;DHT22;4741;49.834;10.740;2022-11-20T14:14:20;2.80;99.90
9403;DHT22;4741;49.834;10.740;2022-11-20T14:16:48;2.80;99.90
9403;DHT22;4741;49.834;10.740;2022-11-20T14:21:47;2.80;99.90
9403;DHT22;4741;49.834;10.740;2022-11-20T14:24:18;2.70;99.90
9403;DHT22;4741;49.834;10.740;2022-11-20T14:26:45;2.70;99.90
9403;DHT22;4741;49.834;10.740;2022-11-20T14:29:20;2.70;99.90
9403;DHT22;4741;49.834;10.740;2022-11-20T14:31:48;2.70;99.90
9403;DHT22;4741;49.834;10.740;2022-11-20T14:34:21;2.70;99.90
9403;DHT22;4741;49.834;10.740;2022-11-20T14:36:49;2.70;99.90
9403;DHT22;4741;49.834;10.740;2022-11-20T14:39:22;2.60;99.90
9403;DHT22;4741;49.834;10.740;2022-11-20T14:41:52;2.60;99.90
9403;DHT22;4741;49.834;10.740;2022-11-20T14:44:41;2.60;99.90
9403;DHT22;4741;49.834;10.740;2022-11-20T14:47:06;2.50;99.90
9403;DHT22;4741;49.834;10.740;2022-11-20T14:49:33;2.50;99.90
9403;DHT22;4741;49.834;10.740;2022-11-20T14:52:10;2.20;99.90
9403;DHT22;4741;49.834;10.740;2022-11-20T14:54:44;2.50;99.90
9403;DHT22;4741;49.834;10.740;2022-11-20T14:57:30;2.50;99.90
9403;DHT22;4741;49.834;10.740;2022-11-20T15:00:04;2.50;99.90
9403;DHT22;4741;49.834;10.740;2022-11-20T15:02:32;2.50;99.90
9403;DHT22;4741;49.834;10.740;2022-11-20T15:04:59;2.40;99.90
9403;DHT22;4741;49.834;10.740;2022-11-20T15:07:28;2.30;99.90
9403;DHT22;4741;49.834;10.740;2022-11-20T15:09:59;2.30;99.90
9403;DHT22;4741;49.834;10.740;2022-11-20T15:12:26;2.40;99.90
9403;DHT22;4741;49.834;10.740;2022-11-20T15:14:53;2.30;99.90
9403;DHT22;4741;49.834;10.740;2022-11-20T15:17:19;2.20;99.90
9403;DHT22;4741;49.834;10.740;2022-11-20T15:19:46;2.30;99.90
9403;DHT22;4741;49.834;10.740;2022-11-20T15:22:13;2.20;99.90
9403;DHT22;4741;49.834;10.740;2022-11-20T15:24:39;2.10;99.90
9403;DHT22;4741;49.834;10.740;2022-11-20T15:27:07;2.10;99.90
9403;DHT22;4741;49.834;10.740;2022-11-20T15:29:34;2.20;99.90
9403;DHT22;4741;49.834;10.740;2022-11-20T15:32:01;2.00;99.90
9403;DHT22;4741;49.834;10.740;2022-11-20T15:34:28;2.20;99.90
9403;DHT22;4741;49.834;10.740;2022-11-20T15:36:55;2.60;99.90
9403;DHT22;4741;49.834;10.740;2022-11-20T15:39:21;2.10;99.90
9403;DHT22;4741;49.834;10.740;2022-11-20T15:41:48;2.10;99.90
9403;DHT22;4741;49.834;10.740;2022-11-20T15:44:15;2.10;99.90
9403;DHT22;4741;49.834;10.740;2022-11-20T15:46:41;2.20;99.90
9403;DHT22;4741;49.834;10.740;2022-11-20T15:49:10;2.00;99.90
9403;DHT22;4741;49.834;10.740;2022-11-20T15:51:38;2.10;99.90
9403;DHT22;4741;49.834;10.740;2022-11-20T15:54:10;2.10;99.90
9403;DHT22;4741;49.834;10.740;2022-11-20T15:56:37;2.20;99.90
9403;DHT22;4741;49.834;10.740;2022-11-20T15:59:04;2.20;99.90
9403;DHT22;4741;49.834;10.740;2022-11-20T16:01:30;2.00;99.90
9403;DHT22;4741;49.834;10.740;2022-11-20T16:03:57;2.10;99.90
9403;DHT22;4741;49.834;10.740;2022-11-20T16:06:25;2.10;99.90
9403;DHT22;4741;49.834;10.740;2022-11-20T16:08:51;2.10;99.90
9403;DHT22;4741;49.834;10.740;2022-11-20T16:11:18;2.20;99.90
9403;DHT22;4741;49.834;10.740;2022-11-20T16:13:45;2.20;99.90
9403;DHT22;4741;49.834;10.740;2022-11-20T16:18:57;2.20;99.90
9403;DHT22;4741;49.834;10.740;2022-11-20T16:21:23;2.20;99.90
9403;DHT22;4741;49.834;10.740;2022-11-20T16:24:06;2.20;99.90
9403;DHT22;4741;49.834;10.740;2022-11-20T16:26:33;2.20;99.90
9403;DHT22;4741;49.834;10.740;2022-11-20T16:29:00;2.20;99.90
9403;DHT22;4741;49.834;10.740;2022-11-20T16:31:27;2.20;99.90
9403;DHT22;4741;49.834;10.740;2022-11-20T16:33:57;2.10;99.90
9403;DHT22;4741;49.834;10.740;2022-11-20T16:36:24;2.20;99.90
9403;DHT22;4741;49.834;10.740;2022-11-20T16:38:55;2.10;99.90
9403;DHT22;4741;49.834;10.740;2022-11-20T16:41:22;2.10;99.90
9403;DHT22;4741;49.834;10.740;2022-11-20T16:43:50;2.00;99.90
9403;DHT22;4741;49.834;10.740;2022-11-20T16:46:19;2.10;99.90
9403;DHT22;4741;49.834;10.740;2022-11-20T16:48:56;2.20;99.90
9403;DHT22;4741;49.834;10.740;2022-11-20T16:51:23;2.20;99.90
9403;DHT22;4741;49.834;10.740;2022-11-20T16:53:50;2.20;99.90
9403;DHT22;4741;49.834;10.740;2022-11-20T16:56:18;2.20;99.90
9403;DHT22;4741;49.834;10.740;2022-11-20T16:58:47;2.20;99.90
9403;DHT22;4741;49.834;10.740;2022-11-20T17:01:15;2.20;99.90
9403;DHT22;4741;49.834;10.740;2022-11-20T17:03:43;2.20;99.90
9403;DHT22;4741;49.834;10.740;2022-11-20T17:06:13;2.20;99.90
9403;DHT22;4741;49.834;10.740;2022-11-20T17:08:41;2.20;99.90
9403;DHT22;4741;49.834;10.740;2022-11-20T17:11:08;2.10;99.90
9403;DHT22;4741;49.834;10.740;2022-11-20T17:13:35;1.90;99.90
9403;DHT22;4741;49.834;10.740;2022-11-20T17:16:06;2.10;99.90
9403;DHT22;4741;49.834;10.740;2022-11-20T17:18:35;2.10;99.90
9403;DHT22;4741;49.834;10.740;2022-11-20T17:21:02;2.00;99.90
9403;DHT22;4741;49.834;10.740;2022-11-20T17:23:31;3.10;99.90
9403;DHT22;4741;49.834;10.740;2022-11-20T17:28:28;2.10;99.90
9403;DHT22;4741;49.834;10.740;2022-11-20T17:30:58;2.00;99.90
9403;DHT22;4741;49.834;10.740;2022-11-20T17:33:24;2.00;99.90
9403;DHT22;4741;49.834;10.740;2022-11-20T17:35:51;2.00;99.90
9403;DHT22;4741;49.834;10.740;2022-11-20T17:38:18;2.00;99.90
9403;DHT22;4741;49.834;10.740;2022-11-20T17:40:44;2.10;99.90
9403;DHT22;4741;49.834;10.740;2022-11-20T17:43:11;2.00;99.90